sensor_id;sensor_type;location;lat;lon;timestamp;pressure;altitude;pressure_sealevel;temperature;humidity
20983;BME280;10650;51.528;6.748;2023-05-02T00:01:06;101687.44;;;12.11;83.08
20983;BME280;10650;51.528;6.748;2023-05-02T00:03:39;101692.81;;;12.17;82.90
20983;BME280;10650;51.528;6.748;2023-05-02T00:06:08;101686.56;;;12.18;82.86
20983;BME280;10650;51.528;6.748;2023-05-02T00:08:36;101693.69;;;12.24;83.24
20983;BME280;10650;51.528;6.748;2023-05-02T00:11:04;101694.59;;;12.24;83.23
20983;BME280;10650;51.528;6.748;2023-05-02T00:13:32;101692.81;;;12.29;83.00
20983;BME280;10650;51.528;6.748;2023-05-02T00:16:01;101693.69;;;12.35;82.98
20983;BME280;10650;51.528;6.748;2023-05-02T00:18:29;101697.25;;;12.32;82.75
20983;BME280;10650;51.528;6.748;2023-05-02T00:20:58;101701.72;;;12.35;82.45
20983;BME280;10650;51.528;6.748;2023-05-02T00:23:26;101700.81;;;12.23;82.71
20983;BME280;10650;51.528;6.748;2023-05-02T00:25:54;101695.50;;;12.09;83.39
20983;BME280;10650;51.528;6.748;2023-05-02T00:28:23;101686.56;;;12.03;83.63
20983;BME280;10650;51.528;6.748;2023-05-02T00:30:52;101694.59;;;12.04;83.68
20983;BME280;10650;51.528;6.748;2023-05-02T00:33:20;101692.78;;;12.03;83.86
20983;BME280;10650;51.528;6.748;2023-05-02T00:35:48;101691.03;;;12.01;83.89
20983;BME280;10650;51.528;6.748;2023-05-02T00:38:18;101685.66;;;11.99;83.92
20983;BME280;10650;51.528;6.748;2023-05-02T00:40:47;101698.16;;;12.02;84.10
20983;BME280;10650;51.528;6.748;2023-05-02T00:43:17;101698.16;;;12.00;84.05
20983;BME280;10650;51.528;6.748;2023-05-02T00:45:45;101699.94;;;12.03;84.74
20983;BME280;10650;51.528;6.748;2023-05-02T00:48:13;101699.06;;;12.08;84.56
20983;BME280;10650;51.528;6.748;2023-05-02T00:50:44;101700.84;;;12.14;84.53
20983;BME280;10650;51.528;6.748;2023-05-02T00:53:12;101703.50;;;12.22;84.17
20983;BME280;10650;51.528;6.748;2023-05-02T00:55:43;101709.75;;;12.27;84.43
20983;BME280;10650;51.528;6.748;2023-05-02T00:58:13;101714.25;;;12.28;84.17
20983;BME280;10650;51.528;6.748;2023-05-02T01:00:52;101726.72;;;12.12;84.95
20983;BME280;10650;51.528;6.748;2023-05-02T01:03:37;101719.56;;;11.97;85.30
20983;BME280;10650;51.528;6.748;2023-05-02T01:06:13;101727.59;;;12.05;85.30
20983;BME280;10650;51.528;6.748;2023-05-02T01:08:59;101711.56;;;12.09;85.43
20983;BME280;10650;51.528;6.748;2023-05-02T01:11:37;101720.50;;;12.05;85.60
20983;BME280;10650;51.528;6.748;2023-05-02T01:14:09;101719.56;;;12.03;85.57
20983;BME280;10650;51.528;6.748;2023-05-02T01:16:40;101723.16;;;12.08;85.76
20983;BME280;10650;51.528;6.748;2023-05-02T01:19:21;101718.69;;;12.20;85.75
20983;BME280;10650;51.528;6.748;2023-05-02T01:21:54;101720.47;;;12.27;85.46
20983;BME280;10650;51.528;6.748;2023-05-02T01:24:25;101723.16;;;12.30;85.53
20983;BME280;10650;51.528;6.748;2023-05-02T01:27:10;101731.19;;;12.33;85.11
20983;BME280;10650;51.528;6.748;2023-05-02T01:29:40;101726.72;;;12.23;84.94
20983;BME280;10650;51.528;6.748;2023-05-02T01:32:11;101738.31;;;12.25;85.51
20983;BME280;10650;51.528;6.748;2023-05-02T01:34:43;101730.31;;;12.19;85.16
20983;BME280;10650;51.528;6.748;2023-05-02T01:37:17;101736.56;;;12.25;84.98
20983;BME280;10650;51.528;6.748;2023-05-02T01:39:51;101742.81;;;12.24;85.46
20983;BME280;10650;51.528;6.748;2023-05-02T01:42:24;101745.50;;;12.20;85.22
20983;BME280;10650;51.528;6.748;2023-05-02T01:44:55;101750.84;;;12.14;84.98
20983;BME280;10650;51.528;6.748;2023-05-02T01:47:25;101744.59;;;12.04;85.11
20983;BME280;10650;51.528;6.748;2023-05-02T01:49:55;101749.94;;;12.02;85.39
20983;BME280;10650;51.528;6.748;2023-05-02T01:52:26;101756.19;;;12.07;85.45
20983;BME280;10650;51.528;6.748;2023-05-02T01:54:56;101757.97;;;12.10;85.15
20983;BME280;10650;51.528;6.748;2023-05-02T01:57:26;101755.28;;;12.11;84.90
20983;BME280;10650;51.528;6.748;2023-05-02T01:59:57;101750.84;;;12.14;85.31
20983;BME280;10650;51.528;6.748;2023-05-02T02:02:27;101760.66;;;12.18;84.93
20983;BME280;10650;51.528;6.748;2023-05-02T02:04:56;101760.66;;;12.18;84.91
20983;BME280;10650;51.528;6.748;2023-05-02T02:07:25;101768.72;;;12.22;84.71
20983;BME280;10650;51.528;6.748;2023-05-02T02:09:53;101771.38;;;12.27;84.54
20983;BME280;10650;51.528;6.748;2023-05-02T02:12:24;101780.31;;;12.32;84.20
20983;BME280;10650;51.528;6.748;2023-05-02T02:14:59;101777.63;;;12.31;84.14
20983;BME280;10650;51.528;6.748;2023-05-02T02:17:36;101776.75;;;12.30;84.54
20983;BME280;10650;51.528;6.748;2023-05-02T02:20:06;101780.31;;;12.21;84.52
20983;BME280;10650;51.528;6.748;2023-05-02T02:22:37;101786.56;;;12.25;84.77
20983;BME280;10650;51.528;6.748;2023-05-02T02:25:09;101781.22;;;12.28;84.53
20983;BME280;10650;51.528;6.748;2023-05-02T02:27:38;101785.66;;;12.32;84.59
20983;BME280;10650;51.528;6.748;2023-05-02T02:30:09;101793.72;;;12.34;84.18
20983;BME280;10650;51.528;6.748;2023-05-02T02:32:37;101792.81;;;12.38;84.44
20983;BME280;10650;51.528;6.748;2023-05-02T02:35:06;101787.47;;;12.35;83.92
20983;BME280;10650;51.528;6.748;2023-05-02T02:37:40;101793.72;;;12.34;84.52
20983;BME280;10650;51.528;6.748;2023-05-02T02:40:13;101783.91;;;12.34;84.16
20983;BME280;10650;51.528;6.748;2023-05-02T02:42:54;101792.81;;;12.33;83.80
20983;BME280;10650;51.528;6.748;2023-05-02T02:45:33;101802.66;;;12.34;84.10
20983;BME280;10650;51.528;6.748;2023-05-02T02:48:11;101799.09;;;12.34;84.32
20983;BME280;10650;51.528;6.748;2023-05-02T02:50:55;101803.56;;;12.39;84.19
20983;BME280;10650;51.528;6.748;2023-05-02T02:54:17;101792.81;;;12.38;83.42
20983;BME280;10650;51.528;6.748;2023-05-02T02:56:58;101792.81;;;12.32;83.47
20983;BME280;10650;51.528;6.748;2023-05-02T02:59:50;101798.19;;;12.35;83.63
20983;BME280;10650;51.528;6.748;2023-05-02T03:02:46;101799.97;;;12.43;84.08
20983;BME280;10650;51.528;6.748;2023-05-02T03:05:15;101794.59;;;12.43;83.90
20983;BME280;10650;51.528;6.748;2023-05-02T03:07:53;101800.88;;;12.44;84.09
20983;BME280;10650;51.528;6.748;2023-05-02T03:10:23;101804.44;;;12.48;84.08
20983;BME280;10650;51.528;6.748;2023-05-02T03:12:52;101810.72;;;12.50;83.86
20983;BME280;10650;51.528;6.748;2023-05-02T03:18:51;101818.75;;;12.50;83.92
20983;BME280;10650;51.528;6.748;2023-05-02T03:21:26;101816.06;;;12.48;83.49
20983;BME280;10650;51.528;6.748;2023-05-02T03:23:58;101816.06;;;12.48;83.45
20983;BME280;10650;51.528;6.748;2023-05-02T03:26:45;101822.31;;;12.45;83.40
20983;BME280;10650;51.528;6.748;2023-05-02T03:29:14;101815.16;;;12.41;83.19
20983;BME280;10650;51.528;6.748;2023-05-02T03:31:42;101822.31;;;12.44;83.25
20983;BME280;10650;51.528;6.748;2023-05-02T03:34:15;101823.19;;;12.41;82.93
20983;BME280;10650;51.528;6.748;2023-05-02T03:36:47;101824.06;;;12.45;83.22
20983;BME280;10650;51.528;6.748;2023-05-02T03:39:34;101825.88;;;12.43;82.76
20983;BME280;10650;51.528;6.748;2023-05-02T03:42:07;101829.44;;;12.33;82.92
20983;BME280;10650;51.528;6.748;2023-05-02T03:44:38;101840.16;;;12.33;83.00
20983;BME280;10650;51.528;6.748;2023-05-02T03:47:06;101834.81;;;12.33;82.45
20983;BME280;10650;51.528;6.748;2023-05-02T03:49:36;101843.72;;;12.38;82.70
20983;BME280;10650;51.528;6.748;2023-05-02T03:52:05;101842.84;;;12.40;82.81
20983;BME280;10650;51.528;6.748;2023-05-02T03:54:34;101846.44;;;12.42;82.74
20983;BME280;10650;51.528;6.748;2023-05-02T03:57:06;101847.31;;;12.43;82.46
20983;BME280;10650;51.528;6.748;2023-05-02T03:59:37;101850.88;;;12.43;82.24
20983;BME280;10650;51.528;6.748;2023-05-02T04:02:07;101854.47;;;12.42;82.61
20983;BME280;10650;51.528;6.748;2023-05-02T04:04:39;101852.69;;;12.40;82.69
20983;BME280;10650;51.528;6.748;2023-05-02T04:07:09;101855.34;;;12.35;83.01
20983;BME280;10650;51.528;6.748;2023-05-02T04:09:47;101858.94;;;12.33;82.92
20983;BME280;10650;51.528;6.748;2023-05-02T04:12:38;101863.38;;;12.31;83.20
20983;BME280;10650;51.528;6.748;2023-05-02T04:15:08;101869.63;;;12.31;83.53
20983;BME280;10650;51.528;6.748;2023-05-02T04:17:37;101867.84;;;12.35;83.78
20983;BME280;10650;51.528;6.748;2023-05-02T04:20:15;101859.81;;;12.32;83.73
20983;BME280;10650;51.528;6.748;2023-05-02T04:22:46;101873.19;;;12.30;84.65
20983;BME280;10650;51.528;6.748;2023-05-02T04:25:15;101873.19;;;12.28;85.10
20983;BME280;10650;51.528;6.748;2023-05-02T04:27:46;101877.69;;;12.28;85.37
20983;BME280;10650;51.528;6.748;2023-05-02T04:30:19;101884.81;;;12.29;85.70
20983;BME280;10650;51.528;6.748;2023-05-02T04:33:22;101885.69;;;12.23;86.06
20983;BME280;10650;51.528;6.748;2023-05-02T04:35:58;101890.13;;;12.12;86.68
20983;BME280;10650;51.528;6.748;2023-05-02T04:38:30;101888.31;;;12.02;87.09
20983;BME280;10650;51.528;6.748;2023-05-02T04:40:58;101898.13;;;12.01;87.78
20983;BME280;10650;51.528;6.748;2023-05-02T04:43:40;101911.53;;;11.98;88.20
20983;BME280;10650;51.528;6.748;2023-05-02T04:46:35;101915.97;;;11.98;88.15
20983;BME280;10650;51.528;6.748;2023-05-02T04:49:37;101922.16;;;11.92;88.65
20983;BME280;10650;51.528;6.748;2023-05-02T04:52:32;101923.06;;;11.92;89.14
20983;BME280;10650;51.528;6.748;2023-05-02T04:55:37;101925.75;;;11.92;88.68
20983;BME280;10650;51.528;6.748;2023-05-02T04:58:27;101932.94;;;11.93;88.71
20983;BME280;10650;51.528;6.748;2023-05-02T05:01:43;101946.25;;;11.89;88.16
20983;BME280;10650;51.528;6.748;2023-05-02T05:04:30;101947.97;;;11.79;87.60
20983;BME280;10650;51.528;6.748;2023-05-02T05:07:48;101956.91;;;11.80;88.13
20983;BME280;10650;51.528;6.748;2023-05-02T05:10:27;101952.41;;;11.68;88.10
20983;BME280;10650;51.528;6.748;2023-05-02T05:13:25;101974.59;;;11.54;87.79
20983;BME280;10650;51.528;6.748;2023-05-02T05:16:33;101967.44;;;11.50;86.52
20983;BME280;10650;51.528;6.748;2023-05-02T05:19:26;101975.44;;;11.47;85.68
20983;BME280;10650;51.528;6.748;2023-05-02T05:21:58;101972.78;;;11.50;86.07
20983;BME280;10650;51.528;6.748;2023-05-02T05:25:36;101973.69;;;11.51;84.31
20983;BME280;10650;51.528;6.748;2023-05-02T05:28:29;101976.41;;;11.58;84.13
20983;BME280;10650;51.528;6.748;2023-05-02T05:31:30;101981.75;;;11.54;83.13
20983;BME280;10650;51.528;6.748;2023-05-02T05:34:28;101989.69;;;11.46;82.82
20983;BME280;10650;51.528;6.748;2023-05-02T05:40:28;101989.88;;;11.68;82.96
20983;BME280;10650;51.528;6.748;2023-05-02T05:46:31;102010.41;;;11.72;81.77
20983;BME280;10650;51.528;6.748;2023-05-02T05:52:31;102017.56;;;11.79;81.10
20983;BME280;10650;51.528;6.748;2023-05-02T05:55:30;102016.66;;;11.74;80.85
20983;BME280;10650;51.528;6.748;2023-05-02T05:58:32;102023.00;;;11.87;81.60
20983;BME280;10650;51.528;6.748;2023-05-02T06:01:29;102028.34;;;11.87;80.78
20983;BME280;10650;51.528;6.748;2023-05-02T06:03:58;102028.34;;;11.82;80.58
20983;BME280;10650;51.528;6.748;2023-05-02T06:06:50;102026.56;;;11.86;80.14
20983;BME280;10650;51.528;6.748;2023-05-02T06:09:40;102024.00;;;11.97;80.68
20983;BME280;10650;51.528;6.748;2023-05-02T06:12:43;102028.44;;;11.94;79.38
20983;BME280;10650;51.528;6.748;2023-05-02T06:15:46;102032.06;;;12.03;79.27
20983;BME280;10650;51.528;6.748;2023-05-02T06:18:34;102044.56;;;12.07;78.98
20983;BME280;10650;51.528;6.748;2023-05-02T06:21:39;102048.97;;;11.96;77.97
20983;BME280;10650;51.528;6.748;2023-05-02T06:24:42;102047.19;;;11.98;76.98
20983;BME280;10650;51.528;6.748;2023-05-02T06:27:16;102052.47;;;11.91;77.33
20983;BME280;10650;51.528;6.748;2023-05-02T06:37:26;102077.38;;;11.76;77.42
20983;BME280;10650;51.528;6.748;2023-05-02T06:40:29;102091.63;;;11.74;76.93
20983;BME280;10650;51.528;6.748;2023-05-02T06:43:30;102085.34;;;11.70;76.29
20983;BME280;10650;51.528;6.748;2023-05-02T06:46:14;102095.94;;;11.55;75.76
20983;BME280;10650;51.528;6.748;2023-05-02T06:48:58;102112.06;;;11.61;76.06
20983;BME280;10650;51.528;6.748;2023-05-02T06:51:31;102110.22;;;11.55;75.97
20983;BME280;10650;51.528;6.748;2023-05-02T06:54:04;102122.72;;;11.55;75.97
20983;BME280;10650;51.528;6.748;2023-05-02T06:56:32;102125.25;;;11.41;75.21
20983;BME280;10650;51.528;6.748;2023-05-02T06:59:22;102125.94;;;11.21;75.50
20983;BME280;10650;51.528;6.748;2023-05-02T07:01:52;102127.75;;;11.24;75.59
20983;BME280;10650;51.528;6.748;2023-05-02T07:04:29;102131.38;;;11.29;75.78
20983;BME280;10650;51.528;6.748;2023-05-02T07:07:31;102136.94;;;11.48;75.15
20983;BME280;10650;51.528;6.748;2023-05-02T07:10:23;102137.69;;;11.36;74.48
20983;BME280;10650;51.528;6.748;2023-05-02T07:12:55;102148.41;;;11.37;74.94
20983;BME280;10650;51.528;6.748;2023-05-02T07:15:41;102145.78;;;11.40;74.99
20983;BME280;10650;51.528;6.748;2023-05-02T07:18:44;102155.53;;;11.35;74.16
20983;BME280;10650;51.528;6.748;2023-05-02T07:21:14;102165.34;;;11.35;74.70
20983;BME280;10650;51.528;6.748;2023-05-02T07:23:54;102167.94;;;11.32;74.56
20983;BME280;10650;51.528;6.748;2023-05-02T07:26:27;102164.44;;;11.36;74.92
20983;BME280;10650;51.528;6.748;2023-05-02T07:28:56;102168.16;;;11.50;74.59
20983;BME280;10650;51.528;6.748;2023-05-02T07:31:35;102166.44;;;11.57;74.50
20983;BME280;10650;51.528;6.748;2023-05-02T07:34:27;102179.78;;;11.52;74.61
20983;BME280;10650;51.528;6.748;2023-05-02T07:36:58;102179.88;;;11.65;74.13
20983;BME280;10650;51.528;6.748;2023-05-02T07:39:43;102181.63;;;11.56;74.16
20983;BME280;10650;51.528;6.748;2023-05-02T07:42:15;102190.75;;;11.83;73.88
20983;BME280;10650;51.528;6.748;2023-05-02T07:44:44;102189.19;;;12.02;73.88
20983;BME280;10650;51.528;6.748;2023-05-02T07:47:13;102193.19;;;11.55;72.50
20983;BME280;10650;51.528;6.748;2023-05-02T07:49:41;102190.59;;;11.66;73.30
20983;BME280;10650;51.528;6.748;2023-05-02T07:52:10;102206.72;;;11.69;73.02
20983;BME280;10650;51.528;6.748;2023-05-02T07:54:38;102209.47;;;11.77;72.37
20983;BME280;10650;51.528;6.748;2023-05-02T07:57:08;102212.13;;;11.75;72.19
20983;BME280;10650;51.528;6.748;2023-05-02T07:59:38;102213.72;;;11.56;72.68
20983;BME280;10650;51.528;6.748;2023-05-02T08:02:07;102215.47;;;11.53;73.45
20983;BME280;10650;51.528;6.748;2023-05-02T08:04:37;102231.22;;;11.27;73.35
20983;BME280;10650;51.528;6.748;2023-05-02T08:07:05;102242.38;;;10.91;73.15
20983;BME280;10650;51.528;6.748;2023-05-02T08:09:33;102240.63;;;10.92;73.83
20983;BME280;10650;51.528;6.748;2023-05-02T08:12:05;102241.66;;;11.05;74.01
20983;BME280;10650;51.528;6.748;2023-05-02T08:14:36;102246.09;;;11.03;73.71
20983;BME280;10650;51.528;6.748;2023-05-02T08:17:09;102251.03;;;10.73;74.13
20983;BME280;10650;51.528;6.748;2023-05-02T08:19:38;102249.41;;;10.83;74.15
20983;BME280;10650;51.528;6.748;2023-05-02T08:22:10;102261.16;;;10.95;74.08
20983;BME280;10650;51.528;6.748;2023-05-02T08:24:39;102258.50;;;10.96;72.61
20983;BME280;10650;51.528;6.748;2023-05-02T08:27:09;102263.91;;;11.01;71.87
20983;BME280;10650;51.528;6.748;2023-05-02T08:29:38;102268.56;;;11.17;71.31
20983;BME280;10650;51.528;6.748;2023-05-02T08:32:08;102267.63;;;11.12;70.03
20983;BME280;10650;51.528;6.748;2023-05-02T08:34:36;102271.28;;;11.20;70.03
20983;BME280;10650;51.528;6.748;2023-05-02T08:37:07;102278.66;;;11.41;70.27
20983;BME280;10650;51.528;6.748;2023-05-02T08:39:39;102282.38;;;11.53;69.46
20983;BME280;10650;51.528;6.748;2023-05-02T08:42:16;102279.69;;;11.51;69.00
20983;BME280;10650;51.528;6.748;2023-05-02T08:44:48;102281.47;;;11.49;68.81
20983;BME280;10650;51.528;6.748;2023-05-02T08:47:21;102282.34;;;11.51;68.69
20983;BME280;10650;51.528;6.748;2023-05-02T08:49:50;102287.06;;;11.71;68.31
20983;BME280;10650;51.528;6.748;2023-05-02T08:52:21;102299.97;;;12.10;68.78
20983;BME280;10650;51.528;6.748;2023-05-02T08:54:52;102292.88;;;12.17;67.47
20983;BME280;10650;51.528;6.748;2023-05-02T08:57:21;102294.75;;;12.27;66.95
20983;BME280;10650;51.528;6.748;2023-05-02T08:59:49;102295.53;;;12.11;65.92
20983;BME280;10650;51.528;6.748;2023-05-02T09:02:25;102302.94;;;12.44;65.41
20983;BME280;10650;51.528;6.748;2023-05-02T09:05:05;102296.81;;;12.59;64.96
20983;BME280;10650;51.528;6.748;2023-05-02T09:07:43;102306.66;;;12.65;64.08
20983;BME280;10650;51.528;6.748;2023-05-02T09:10:12;102311.09;;;12.57;63.40
20983;BME280;10650;51.528;6.748;2023-05-02T09:12:40;102313.97;;;12.83;63.18
20983;BME280;10650;51.528;6.748;2023-05-02T09:15:11;102313.91;;;12.75;62.68
20983;BME280;10650;51.528;6.748;2023-05-02T09:17:46;102314.03;;;12.92;62.11
20983;BME280;10650;51.528;6.748;2023-05-02T09:20:15;102310.44;;;12.96;61.43
20983;BME280;10650;51.528;6.748;2023-05-02T09:22:47;102318.69;;;13.27;62.20
20983;BME280;10650;51.528;6.748;2023-05-02T09:25:17;102313.47;;;13.57;61.29
20983;BME280;10650;51.528;6.748;2023-05-02T09:27:57;102321.56;;;13.64;60.08
20983;BME280;10650;51.528;6.748;2023-05-02T09:30:33;102318.88;;;13.67;59.30
20983;BME280;10650;51.528;6.748;2023-05-02T09:33:11;102332.31;;;13.63;59.92
20983;BME280;10650;51.528;6.748;2023-05-02T09:35:59;102326.75;;;13.30;59.12
20983;BME280;10650;51.528;6.748;2023-05-02T09:38:30;102324.94;;;13.26;58.92
20983;BME280;10650;51.528;6.748;2023-05-02T09:40:59;102339.28;;;13.28;58.63
20983;BME280;10650;51.528;6.748;2023-05-02T09:43:31;102343.56;;;12.94;59.33
20983;BME280;10650;51.528;6.748;2023-05-02T09:46:03;102343.56;;;12.95;60.30
20983;BME280;10650;51.528;6.748;2023-05-02T09:48:56;102339.16;;;13.08;60.01
20983;BME280;10650;51.528;6.748;2023-05-02T09:51:28;102346.38;;;13.17;60.09
20983;BME280;10650;51.528;6.748;2023-05-02T09:54:05;102340.91;;;13.02;58.78
20983;BME280;10650;51.528;6.748;2023-05-02T09:56:51;102349.91;;;13.10;58.50
20983;BME280;10650;51.528;6.748;2023-05-02T09:59:20;102363.25;;;13.04;57.19
20983;BME280;10650;51.528;6.748;2023-05-02T10:01:56;102364.97;;;12.91;56.65
20983;BME280;10650;51.528;6.748;2023-05-02T10:04:38;102360.41;;;12.77;56.97
20983;BME280;10650;51.528;6.748;2023-05-02T10:07:11;102363.06;;;12.76;57.39
20983;BME280;10650;51.528;6.748;2023-05-02T10:09:47;102363.09;;;12.77;57.98
20983;BME280;10650;51.528;6.748;2023-05-02T10:12:25;102378.13;;;12.55;57.58
20983;BME280;10650;51.528;6.748;2023-05-02T10:15:07;102385.38;;;12.72;58.00
20983;BME280;10650;51.528;6.748;2023-05-02T10:17:39;102380.63;;;12.38;56.15
20983;BME280;10650;51.528;6.748;2023-05-02T10:20:12;102385.19;;;12.50;56.98
20983;BME280;10650;51.528;6.748;2023-05-02T10:22:42;102378.16;;;12.60;55.97
20983;BME280;10650;51.528;6.748;2023-05-02T10:25:12;102374.66;;;12.73;55.87
20983;BME280;10650;51.528;6.748;2023-05-02T10:27:43;102376.50;;;12.77;55.22
20983;BME280;10650;51.528;6.748;2023-05-02T10:30:14;102390.78;;;12.76;53.92
20983;BME280;10650;51.528;6.748;2023-05-02T10:32:45;102386.38;;;12.83;54.56
20983;BME280;10650;51.528;6.748;2023-05-02T10:35:16;102381.16;;;13.02;54.02
20983;BME280;10650;51.528;6.748;2023-05-02T10:37:44;102391.00;;;13.04;53.23
20983;BME280;10650;51.528;6.748;2023-05-02T10:40:14;102381.25;;;13.12;52.83
20983;BME280;10650;51.528;6.748;2023-05-02T10:42:45;102384.09;;;13.37;51.89
20983;BME280;10650;51.528;6.748;2023-05-02T10:45:29;102376.16;;;13.63;50.57
20983;BME280;10650;51.528;6.748;2023-05-02T10:48:16;102390.44;;;13.59;48.78
20983;BME280;10650;51.528;6.748;2023-05-02T10:50:48;102383.34;;;13.66;49.43
20983;BME280;10650;51.528;6.748;2023-05-02T10:53:27;102378.72;;;13.37;49.86
20983;BME280;10650;51.528;6.748;2023-05-02T10:56:17;102378.81;;;13.57;49.15
20983;BME280;10650;51.528;6.748;2023-05-02T10:58:47;102379.78;;;13.79;49.15
20983;BME280;10650;51.528;6.748;2023-05-02T11:01:35;102375.38;;;13.95;48.57
20983;BME280;10650;51.528;6.748;2023-05-02T11:04:07;102374.47;;;13.96;47.22
20983;BME280;10650;51.528;6.748;2023-05-02T11:07:16;102385.22;;;13.96;48.50
20983;BME280;10650;51.528;6.748;2023-05-02T11:09:44;102395.03;;;13.77;48.85
20983;BME280;10650;51.528;6.748;2023-05-02T11:12:41;102394.94;;;13.59;49.88
20983;BME280;10650;51.528;6.748;2023-05-02T11:15:10;102392.19;;;13.49;50.17
20983;BME280;10650;51.528;6.748;2023-05-02T11:17:59;102385.94;;;13.49;49.89
20983;BME280;10650;51.528;6.748;2023-05-02T11:20:28;102393.09;;;13.50;49.46
20983;BME280;10650;51.528;6.748;2023-05-02T11:23:18;102394.09;;;13.75;49.55
20983;BME280;10650;51.528;6.748;2023-05-02T11:25:49;102395.09;;;13.97;47.83
20983;BME280;10650;51.528;6.748;2023-05-02T11:28:42;102386.16;;;14.06;47.58
20983;BME280;10650;51.528;6.748;2023-05-02T11:34:18;102387.03;;;13.96;46.45
20983;BME280;10650;51.528;6.748;2023-05-02T11:36:46;102382.53;;;14.01;46.29
20983;BME280;10650;51.528;6.748;2023-05-02T11:39:19;102379.03;;;14.16;46.09
20983;BME280;10650;51.528;6.748;2023-05-02T11:41:48;102384.44;;;14.34;45.97
20983;BME280;10650;51.528;6.748;2023-05-02T11:44:16;102390.69;;;14.41;45.62
20983;BME280;10650;51.528;6.748;2023-05-02T11:46:44;102388.91;;;14.29;45.31
20983;BME280;10650;51.528;6.748;2023-05-02T11:49:12;102392.50;;;14.33;45.56
20983;BME280;10650;51.528;6.748;2023-05-02T11:51:41;102396.97;;;14.51;45.37
20983;BME280;10650;51.528;6.748;2023-05-02T11:54:18;102391.59;;;14.52;44.97
20983;BME280;10650;51.528;6.748;2023-05-02T11:56:47;102391.56;;;14.17;43.90
20983;BME280;10650;51.528;6.748;2023-05-02T11:59:15;102389.78;;;14.19;44.22
20983;BME280;10650;51.528;6.748;2023-05-02T12:01:47;102400.56;;;14.33;44.72
20983;BME280;10650;51.528;6.748;2023-05-02T12:04:14;102395.22;;;14.50;44.62
20983;BME280;10650;51.528;6.748;2023-05-02T12:06:54;102406.84;;;14.58;44.84
20983;BME280;10650;51.528;6.748;2023-05-02T12:09:23;102407.75;;;14.40;44.58
20983;BME280;10650;51.528;6.748;2023-05-02T12:11:51;102406.78;;;14.16;43.84
20983;BME280;10650;51.528;6.748;2023-05-02T12:14:27;102404.00;;;13.84;44.60
20983;BME280;10650;51.528;6.748;2023-05-02T12:16:57;102410.22;;;13.75;45.33
20983;BME280;10650;51.528;6.748;2023-05-02T12:19:25;102408.44;;;13.73;43.95
20983;BME280;10650;51.528;6.748;2023-05-02T12:21:54;102414.84;;;14.04;44.61
20983;BME280;10650;51.528;6.748;2023-05-02T12:24:23;102411.31;;;14.44;44.85
20983;BME280;10650;51.528;6.748;2023-05-02T12:27:09;102409.59;;;14.89;44.12
20983;BME280;10650;51.528;6.748;2023-05-02T12:29:39;102415.00;;;14.84;44.08
20983;BME280;10650;51.528;6.748;2023-05-02T12:32:07;102414.97;;;14.72;44.44
20983;BME280;10650;51.528;6.748;2023-05-02T12:34:36;102420.28;;;14.61;44.10
20983;BME280;10650;51.528;6.748;2023-05-02T12:37:05;102415.81;;;14.45;44.89
20983;BME280;10650;51.528;6.748;2023-05-02T12:39:35;102424.72;;;14.25;44.31
20983;BME280;10650;51.528;6.748;2023-05-02T12:42:10;102436.34;;;14.16;43.88
20983;BME280;10650;51.528;6.748;2023-05-02T12:44:39;102431.72;;;13.77;43.75
20983;BME280;10650;51.528;6.748;2023-05-02T12:47:11;102431.78;;;13.88;44.58
20983;BME280;10650;51.528;6.748;2023-05-02T12:49:49;102443.47;;;13.97;44.25
20983;BME280;10650;51.528;6.748;2023-05-02T12:52:17;102438.16;;;14.17;44.37
20983;BME280;10650;51.528;6.748;2023-05-02T12:54:47;102439.03;;;14.04;43.83
20983;BME280;10650;51.528;6.748;2023-05-02T12:57:22;102439.91;;;14.01;43.32
20983;BME280;10650;51.528;6.748;2023-05-02T12:59:51;102440.78;;;14.10;43.97
20983;BME280;10650;51.528;6.748;2023-05-02T13:02:22;102436.41;;;14.33;42.77
20983;BME280;10650;51.528;6.748;2023-05-02T13:04:51;102442.69;;;14.56;43.46
20983;BME280;10650;51.528;6.748;2023-05-02T13:07:19;102439.13;;;14.58;44.11
20983;BME280;10650;51.528;6.748;2023-05-02T13:09:48;102443.56;;;14.33;42.75
20983;BME280;10650;51.528;6.748;2023-05-02T13:12:16;102441.72;;;14.07;42.82
20983;BME280;10650;51.528;6.748;2023-05-02T13:14:44;102449.78;;;14.10;42.34
20983;BME280;10650;51.528;6.748;2023-05-02T13:17:12;102438.16;;;14.14;42.26
20983;BME280;10650;51.528;6.748;2023-05-02T13:19:40;102439.03;;;14.18;42.26
20983;BME280;10650;51.528;6.748;2023-05-02T13:22:27;102437.22;;;14.05;42.89
20983;BME280;10650;51.528;6.748;2023-05-02T13:24:59;102431.91;;;14.34;43.58
20983;BME280;10650;51.528;6.748;2023-05-02T13:27:27;102422.13;;;14.62;42.21
20983;BME280;10650;51.528;6.748;2023-05-02T13:29:55;102429.31;;;14.73;42.14
20983;BME280;10650;51.528;6.748;2023-05-02T13:32:25;102431.09;;;14.75;41.47
20983;BME280;10650;51.528;6.748;2023-05-02T13:34:54;102425.72;;;14.67;42.47
20983;BME280;10650;51.528;6.748;2023-05-02T13:37:22;102437.38;;;14.65;42.09
20983;BME280;10650;51.528;6.748;2023-05-02T13:39:52;102440.94;;;14.56;42.32
20983;BME280;10650;51.528;6.748;2023-05-02T13:42:21;102431.94;;;14.54;42.55
20983;BME280;10650;51.528;6.748;2023-05-02T13:44:49;102434.63;;;14.56;42.69
20983;BME280;10650;51.528;6.748;2023-05-02T13:47:17;102437.31;;;14.46;42.99
20983;BME280;10650;51.528;6.748;2023-05-02T13:49:45;102434.63;;;14.49;43.20
20983;BME280;10650;51.528;6.748;2023-05-02T13:52:15;102436.44;;;14.57;42.79
20983;BME280;10650;51.528;6.748;2023-05-02T13:54:43;102438.28;;;14.82;42.82
20983;BME280;10650;51.528;6.748;2023-05-02T13:57:11;102431.09;;;15.14;42.72
20983;BME280;10650;51.528;6.748;2023-05-02T13:59:41;102434.66;;;15.39;42.00